createdAt,value
2022-07-29T00:00:00.005Z,94975.50
2022-07-29T00:02:27.662Z,94983.00
2022-07-29T00:04:54.758Z,94966.00
2022-07-29T00:07:21.453Z,94966.16
2022-07-29T00:09:52.180Z,94965.81
2022-07-29T00:12:25.488Z,94971.09
2022-07-29T00:14:55.412Z,94960.78
2022-07-29T00:17:23.529Z,94960.69
2022-07-29T00:19:50.270Z,94967.34
2022-07-29T00:22:16.945Z,94962.94
2022-07-29T00:24:43.639Z,94971.19
2022-07-29T00:27:10.329Z,94966.31
2022-07-29T00:29:37.060Z,94964.69
2022-07-29T00:32:04.002Z,94976.22
2022-07-29T00:34:31.055Z,94973.72
2022-07-29T00:36:58.251Z,94978.56
2022-07-29T00:39:25.029Z,94974.28
2022-07-29T00:41:54.289Z,94973.00
2022-07-29T00:44:21.003Z,94981.78
2022-07-29T00:46:48.024Z,94979.88
2022-07-29T00:49:14.944Z,94978.25
2022-07-29T00:51:41.883Z,94983.44
2022-07-29T00:54:08.806Z,94976.66
2022-07-29T00:56:35.654Z,94988.59
2022-07-29T00:59:02.588Z,94976.72
2022-07-29T01:01:29.478Z,94973.66
2022-07-29T01:03:56.461Z,94974.88
2022-07-29T01:06:25.869Z,94976.81
2022-07-29T01:08:52.689Z,94975.34
2022-07-29T01:11:20.196Z,94972.78
2022-07-29T01:13:48.716Z,94979.50
2022-07-29T01:16:36.373Z,94972.16
2022-07-29T01:19:24.047Z,94961.88
2022-07-29T01:21:50.707Z,94972.28
2022-07-29T01:24:31.206Z,94972.66
2022-07-29T01:27:25.337Z,94971.34
2022-07-29T01:30:05.404Z,94968.84
2022-07-29T01:32:41.157Z,94972.78
2022-07-29T01:35:27.249Z,94971.59
2022-07-29T01:38:07.878Z,94970.16
2022-07-29T01:41:02.413Z,94968.47
2022-07-29T01:43:56.636Z,94966.94
2022-07-29T01:46:34.344Z,94960.78
2022-07-29T01:49:11.023Z,94969.44
2022-07-29T01:51:58.576Z,94971.63
2022-07-29T01:54:51.756Z,94966.84
2022-07-29T01:57:26.259Z,94972.75
2022-07-29T01:59:57.257Z,94977.59
2022-07-29T02:02:27.178Z,94974.06
2022-07-29T02:04:57.280Z,94975.72
2022-07-29T02:07:29.187Z,94974.53
2022-07-29T02:09:59.135Z,94979.97
2022-07-29T02:12:29.456Z,94974.94
2022-07-29T02:15:02.397Z,94973.84
2022-07-29T02:17:40.839Z,94982.00
2022-07-29T02:20:10.521Z,94972.47
2022-07-29T02:22:40.551Z,94974.13
2022-07-29T02:25:13.809Z,94976.34
2022-07-29T02:27:43.605Z,94975.81
2022-07-29T02:30:11.080Z,94970.84
2022-07-29T02:32:41.027Z,94963.72
2022-07-29T02:35:10.218Z,94968.81
2022-07-29T02:37:39.418Z,94966.81
2022-07-29T02:40:12.025Z,94969.00
2022-07-29T02:42:42.210Z,94965.22
2022-07-29T02:45:10.378Z,94970.50
2022-07-29T02:47:49.511Z,94974.69
2022-07-29T02:50:35.586Z,94976.72
2022-07-29T02:53:09.937Z,94972.00
2022-07-29T02:55:55.950Z,94971.56
2022-07-29T02:58:35.586Z,94967.47
2022-07-29T03:01:21.651Z,94976.28
2022-07-29T03:03:52.817Z,94979.50
2022-07-29T03:06:31.369Z,94977.28
2022-07-29T03:09:12.850Z,94983.88
2022-07-29T03:11:50.364Z,94985.91
2022-07-29T03:14:19.807Z,94981.22
2022-07-29T03:16:48.052Z,94978.88
2022-07-29T03:19:15.456Z,94978.41
2022-07-29T03:21:42.543Z,94976.84
2022-07-29T03:24:10.804Z,94993.16
2022-07-29T03:26:37.971Z,94988.91
2022-07-29T03:29:04.885Z,94984.75
2022-07-29T03:31:31.792Z,94975.00
2022-07-29T03:34:00.667Z,94977.47
2022-07-29T03:36:27.657Z,94971.19
2022-07-29T03:38:56.367Z,94972.91
2022-07-29T03:41:26.621Z,94979.81
2022-07-29T03:43:55.969Z,94983.84
2022-07-29T03:46:29.362Z,94977.66
2022-07-29T03:49:02.202Z,94978.44
2022-07-29T03:51:31.538Z,94980.47
2022-07-29T03:54:06.420Z,94976.84
2022-07-29T03:56:42.070Z,94991.22
2022-07-29T03:59:11.606Z,94990.41
2022-07-29T04:01:39.991Z,94985.94
2022-07-29T04:04:06.949Z,94984.13
2022-07-29T04:06:44.973Z,94996.41
2022-07-29T04:09:13.086Z,94997.59
2022-07-29T04:12:02.383Z,94999.81
2022-07-29T04:14:48.236Z,95005.06
2022-07-29T04:17:15.152Z,94999.13
2022-07-29T04:19:42.007Z,95000.16
2022-07-29T04:22:08.822Z,94995.50
2022-07-29T04:24:36.040Z,94999.22
2022-07-29T04:27:02.886Z,94997.38
2022-07-29T04:29:29.616Z,94992.41
2022-07-29T04:31:56.591Z,94996.63
2022-07-29T04:34:23.353Z,95008.66
2022-07-29T04:36:55.554Z,95020.34
2022-07-29T04:39:23.324Z,95019.16
2022-07-29T04:41:51.279Z,95018.91
2022-07-29T04:44:19.860Z,95020.06
2022-07-29T04:46:46.842Z,95014.13
2022-07-29T04:49:13.682Z,95024.06
2022-07-29T04:51:40.490Z,95030.19
2022-07-29T04:54:07.369Z,95024.03
2022-07-29T04:56:34.126Z,95032.22
2022-07-29T04:59:00.861Z,95029.03
2022-07-29T05:01:27.883Z,95027.59
2022-07-29T05:03:59.883Z,95025.13
2022-07-29T05:06:27.297Z,95030.69
2022-07-29T05:08:53.977Z,95031.03
2022-07-29T05:11:22.439Z,95038.03
2022-07-29T05:13:50.645Z,95044.50
2022-07-29T05:16:17.413Z,95046.28
2022-07-29T05:18:45.662Z,95048.00
2022-07-29T05:21:14.985Z,95046.69
2022-07-29T05:23:41.637Z,95046.91
2022-07-29T05:26:08.299Z,95048.78
2022-07-29T05:28:35.522Z,95046.81
2022-07-29T05:31:02.291Z,95038.53
2022-07-29T05:33:35.271Z,95050.75
2022-07-29T05:36:06.221Z,95045.38
2022-07-29T05:38:33.222Z,95050.44
2022-07-29T05:41:00.124Z,95047.84
2022-07-29T05:43:28.770Z,95051.91
2022-07-29T05:45:55.907Z,95049.44
2022-07-29T05:48:22.767Z,95058.59
2022-07-29T05:50:49.440Z,95059.84
2022-07-29T05:53:18.981Z,95060.22
2022-07-29T05:55:47.602Z,95063.38
2022-07-29T05:58:14.268Z,95071.75
2022-07-29T06:00:41.233Z,95073.28
2022-07-29T06:03:08.191Z,95070.75
2022-07-29T06:05:35.058Z,95082.69
2022-07-29T06:08:01.863Z,95077.25
2022-07-29T06:10:28.540Z,95070.59
2022-07-29T06:12:55.770Z,95068.78
2022-07-29T06:15:22.424Z,95068.22
2022-07-29T06:17:58.914Z,95080.22
2022-07-29T06:20:31.281Z,95087.09
2022-07-29T06:22:58.519Z,95080.81
2022-07-29T06:25:25.220Z,95080.81
2022-07-29T06:27:53.653Z,95075.63
2022-07-29T06:30:20.493Z,95090.31
2022-07-29T06:32:47.244Z,95097.97
2022-07-29T06:38:00.677Z,95100.84
2022-07-29T06:40:27.564Z,95109.31
2022-07-29T06:42:54.416Z,95093.59
2022-07-29T06:45:21.271Z,95101.00
2022-07-29T06:47:47.935Z,95093.56
2022-07-29T06:50:14.643Z,95091.19
2022-07-29T06:52:41.390Z,95097.16
2022-07-29T06:55:08.994Z,95093.38
2022-07-29T06:57:36.001Z,95091.66
2022-07-29T07:00:03.442Z,95095.22
2022-07-29T07:02:30.224Z,95092.69
2022-07-29T07:04:56.956Z,95088.16
2022-07-29T07:07:23.935Z,95094.81
2022-07-29T07:09:50.654Z,95090.06
2022-07-29T07:12:17.551Z,95094.63
2022-07-29T07:14:44.352Z,95090.84
2022-07-29T07:17:11.000Z,95096.69
2022-07-29T07:19:37.749Z,95096.53
2022-07-29T07:22:04.818Z,95105.47
2022-07-29T07:24:31.608Z,95096.34
2022-07-29T07:26:58.447Z,95091.47
2022-07-29T07:29:25.259Z,95088.78
2022-07-29T07:31:53.506Z,95096.66
2022-07-29T07:34:28.317Z,95098.66
2022-07-29T07:36:56.436Z,95101.03
2022-07-29T07:39:23.198Z,95108.91
2022-07-29T07:41:49.923Z,95102.13
2022-07-29T07:44:17.203Z,95110.13
2022-07-29T07:46:44.347Z,95117.28
2022-07-29T07:49:12.044Z,95117.03
2022-07-29T07:51:38.784Z,95128.28
2022-07-29T07:54:05.750Z,95129.06
2022-07-29T07:56:35.292Z,95127.19
2022-07-29T07:59:02.245Z,95131.94
2022-07-29T08:01:29.072Z,95126.31
2022-07-29T08:04:15.195Z,95130.63
2022-07-29T08:06:42.578Z,95121.00
2022-07-29T08:09:28.325Z,95123.16
2022-07-29T08:11:56.752Z,95121.81
2022-07-29T08:14:23.462Z,95125.59
2022-07-29T08:16:50.301Z,95132.47
2022-07-29T08:19:17.139Z,95123.91
2022-07-29T08:21:43.913Z,95131.19
2022-07-29T08:24:10.671Z,95132.50
2022-07-29T08:26:37.522Z,95124.41
2022-07-29T08:29:04.248Z,95128.69
2022-07-29T08:31:31.053Z,95139.63
2022-07-29T08:33:57.883Z,95132.47
2022-07-29T08:36:25.553Z,95137.56
2022-07-29T08:38:52.337Z,95139.19
2022-07-29T08:41:20.956Z,95139.81
2022-07-29T08:43:49.487Z,95138.66
2022-07-29T08:46:17.059Z,95143.28
2022-07-29T08:48:44.592Z,95136.47
2022-07-29T08:51:16.456Z,95139.19
2022-07-29T08:53:45.652Z,95130.94
2022-07-29T08:56:13.865Z,95142.78
2022-07-29T08:58:42.004Z,95133.28
2022-07-29T09:01:15.121Z,95136.72
2022-07-29T09:03:45.572Z,95145.03
2022-07-29T09:06:18.948Z,95138.75
2022-07-29T09:08:46.269Z,95143.00
2022-07-29T09:11:14.472Z,95148.16
2022-07-29T09:13:41.690Z,95143.84
2022-07-29T09:16:09.491Z,95158.09
2022-07-29T09:18:42.702Z,95156.13
2022-07-29T09:21:12.585Z,95153.28
2022-07-29T09:23:39.264Z,95155.38
2022-07-29T09:26:06.984Z,95159.75
2022-07-29T09:28:36.550Z,95161.47
2022-07-29T09:31:03.450Z,95158.88
2022-07-29T09:33:35.384Z,95160.88
2022-07-29T09:36:09.474Z,95154.63
2022-07-29T09:38:37.289Z,95151.56
2022-07-29T09:41:06.703Z,95158.38
2022-07-29T09:43:35.453Z,95151.97
2022-07-29T09:46:12.819Z,95148.78
2022-07-29T09:48:39.791Z,95153.59
2022-07-29T09:51:06.590Z,95153.22
2022-07-29T09:53:38.971Z,95155.25
2022-07-29T09:56:06.145Z,95155.94
2022-07-29T09:58:33.392Z,95156.88
2022-07-29T10:01:02.509Z,95165.09
2022-07-29T10:03:29.279Z,95167.31
2022-07-29T10:06:25.201Z,95164.97
2022-07-29T10:08:52.422Z,95153.84
2022-07-29T10:11:22.794Z,95156.88
2022-07-29T10:13:49.665Z,95166.28
2022-07-29T10:16:17.529Z,95167.09
2022-07-29T10:18:45.441Z,95167.66
2022-07-29T10:21:34.860Z,95165.53
2022-07-29T10:24:01.353Z,95158.38
2022-07-29T10:26:30.424Z,95169.72
2022-07-29T10:28:57.204Z,95163.09
2022-07-29T10:31:37.451Z,95166.97
2022-07-29T10:34:33.924Z,95178.47
2022-07-29T10:37:18.151Z,95173.63
2022-07-29T10:40:11.711Z,95176.31
2022-07-29T10:42:43.591Z,95180.16
2022-07-29T10:45:11.760Z,95180.25
2022-07-29T10:47:39.204Z,95174.69
2022-07-29T10:50:07.009Z,95172.53
2022-07-29T10:52:54.652Z,95176.69
2022-07-29T10:55:33.469Z,95172.72
2022-07-29T10:58:23.866Z,95183.16
2022-07-29T11:00:52.852Z,95185.97
2022-07-29T11:03:49.652Z,95194.59
2022-07-29T11:06:26.463Z,95184.94
2022-07-29T11:09:16.959Z,95204.97
2022-07-29T11:14:58.247Z,95237.88
2022-07-29T11:17:24.988Z,95241.88
2022-07-29T11:20:31.177Z,95250.88
2022-07-29T11:22:59.537Z,95287.69
2022-07-29T11:25:50.832Z,95288.88
2022-07-29T11:28:25.038Z,95303.56
2022-07-29T11:30:58.007Z,95307.34
2022-07-29T11:33:54.293Z,95312.88
2022-07-29T11:36:28.377Z,95310.81
2022-07-29T11:39:27.356Z,95326.81
2022-07-29T11:42:28.528Z,95326.44
2022-07-29T11:45:09.060Z,95336.66
2022-07-29T11:47:55.955Z,95332.50
2022-07-29T11:50:36.592Z,95340.22
2022-07-29T11:53:11.787Z,95333.66
2022-07-29T11:55:51.356Z,95333.72
2022-07-29T11:58:25.020Z,95337.56
2022-07-29T12:00:53.141Z,95337.66
2022-07-29T12:03:33.428Z,95339.63
2022-07-29T12:06:07.602Z,95334.97
2022-07-29T12:08:42.162Z,95351.69
2022-07-29T12:11:17.274Z,95349.50
2022-07-29T12:13:44.003Z,95350.13
2022-07-29T12:16:12.779Z,95349.69
2022-07-29T12:18:41.609Z,95339.91
2022-07-29T12:21:08.434Z,95348.44
2022-07-29T12:23:35.636Z,95354.28
2022-07-29T12:26:07.646Z,95355.31
2022-07-29T12:28:39.317Z,95349.72
2022-07-29T12:31:06.384Z,95351.00
2022-07-29T12:33:35.779Z,95349.97
2022-07-29T12:36:07.633Z,95342.28
2022-07-29T12:38:36.662Z,95350.22
2022-07-29T12:41:04.460Z,95349.63
2022-07-29T12:43:32.244Z,95352.56
2022-07-29T12:46:12.140Z,95345.56
2022-07-29T12:48:44.212Z,95344.59
2022-07-29T12:51:12.197Z,95350.94
2022-07-29T12:53:39.053Z,95348.38
2022-07-29T12:56:20.710Z,95349.47
2022-07-29T12:58:55.057Z,95353.94
2022-07-29T13:01:22.620Z,95355.06
2022-07-29T13:03:56.786Z,95360.34
2022-07-29T13:06:37.749Z,95350.66
2022-07-29T13:09:09.435Z,95359.28
2022-07-29T13:11:46.568Z,95356.22
2022-07-29T13:14:32.515Z,95358.84
2022-07-29T13:17:06.912Z,95363.66
2022-07-29T13:19:45.010Z,95363.78
2022-07-29T13:22:18.703Z,95366.03
2022-07-29T13:24:58.832Z,95368.94
2022-07-29T13:27:28.069Z,95360.94
2022-07-29T13:29:56.746Z,95363.81
2022-07-29T13:32:28.258Z,95356.91
2022-07-29T13:34:57.319Z,95365.28
2022-07-29T13:37:24.177Z,95371.69
2022-07-29T13:39:53.257Z,95371.00
2022-07-29T13:42:20.685Z,95371.78
2022-07-29T13:44:47.439Z,95370.59
2022-07-29T13:47:14.097Z,95367.81
2022-07-29T13:49:41.066Z,95366.72
2022-07-29T13:52:07.758Z,95367.31
2022-07-29T13:54:38.799Z,95369.66
2022-07-29T13:57:08.786Z,95366.09
2022-07-29T13:59:35.453Z,95360.72
2022-07-29T14:02:02.219Z,95362.69
2022-07-29T14:04:28.956Z,95362.16
2022-07-29T14:06:55.808Z,95349.22
2022-07-29T14:09:22.499Z,95351.75
2022-07-29T14:11:49.245Z,95344.88
2022-07-29T14:14:16.237Z,95348.88
2022-07-29T14:16:47.890Z,95339.41
2022-07-29T14:19:17.335Z,95331.91
2022-07-29T14:21:54.611Z,95333.69
2022-07-29T14:24:23.989Z,95331.22
2022-07-29T14:26:52.626Z,95320.66
2022-07-29T14:29:19.286Z,95326.63
2022-07-29T14:31:46.031Z,95323.09
2022-07-29T14:34:12.771Z,95327.69
2022-07-29T14:36:39.455Z,95316.81
2022-07-29T14:39:07.335Z,95324.06
2022-07-29T14:41:34.010Z,95318.91
2022-07-29T14:44:00.749Z,95333.38
2022-07-29T14:46:28.460Z,95331.56
2022-07-29T14:48:55.254Z,95327.47
2022-07-29T14:51:21.936Z,95322.28
2022-07-29T14:53:48.621Z,95317.09
2022-07-29T14:56:36.166Z,95317.28
2022-07-29T14:59:02.070Z,95306.28
2022-07-29T15:01:28.908Z,95306.91
2022-07-29T15:03:59.555Z,95302.47
2022-07-29T15:06:27.981Z,95304.72
2022-07-29T15:08:54.715Z,95305.50
2022-07-29T15:11:21.401Z,95308.09
2022-07-29T15:13:48.062Z,95303.22
2022-07-29T15:16:14.858Z,95300.97
2022-07-29T15:18:41.562Z,95296.81
2022-07-29T15:21:08.342Z,95286.06
2022-07-29T15:23:35.397Z,95279.81
2022-07-29T15:26:02.124Z,95287.78
2022-07-29T15:28:28.942Z,95289.63
2022-07-29T15:30:55.722Z,95295.19
2022-07-29T15:33:23.561Z,95290.31
2022-07-29T15:35:52.732Z,95289.13
2022-07-29T15:38:19.422Z,95290.59
2022-07-29T15:40:46.103Z,95287.00
2022-07-29T15:43:12.858Z,95294.47
2022-07-29T15:45:42.126Z,95289.13
2022-07-29T15:48:14.628Z,95289.78
2022-07-29T15:50:41.668Z,95286.47
2022-07-29T15:53:08.359Z,95282.78
2022-07-29T15:55:34.998Z,95279.50
2022-07-29T15:58:01.705Z,95287.00
2022-07-29T16:00:28.432Z,95286.25
2022-07-29T16:02:55.930Z,95274.09
2022-07-29T16:05:22.709Z,95284.28
2022-07-29T16:07:49.536Z,95275.16
2022-07-29T16:10:16.190Z,95279.91
2022-07-29T16:12:42.850Z,95281.72
2022-07-29T16:15:10.633Z,95277.31
2022-07-29T16:17:38.465Z,95279.63
2022-07-29T16:20:05.955Z,95283.88
2022-07-29T16:22:32.750Z,95281.50
2022-07-29T16:24:59.419Z,95272.78
2022-07-29T16:27:26.453Z,95279.50
2022-07-29T16:30:02.093Z,95282.66
2022-07-29T16:32:28.862Z,95278.03
2022-07-29T16:34:55.573Z,95277.63
2022-07-29T16:37:22.296Z,95271.31
2022-07-29T16:39:48.939Z,95283.41
2022-07-29T16:42:30.983Z,95272.66
2022-07-29T16:45:03.119Z,95269.13
2022-07-29T16:47:29.927Z,95288.41
2022-07-29T16:49:56.813Z,95279.09
2022-07-29T16:52:23.779Z,95283.91
2022-07-29T16:54:50.653Z,95282.00
2022-07-29T16:57:17.436Z,95274.63
2022-07-29T16:59:44.204Z,95284.19
2022-07-29T17:02:10.955Z,95275.81
2022-07-29T17:04:37.717Z,95277.50
2022-07-29T17:07:04.371Z,95282.66
2022-07-29T17:09:31.068Z,95277.84
2022-07-29T17:11:57.735Z,95278.81
2022-07-29T17:14:29.375Z,95273.19
2022-07-29T17:17:00.294Z,95274.97
2022-07-29T17:19:31.362Z,95284.34
2022-07-29T17:22:06.760Z,95280.53
2022-07-29T17:24:38.277Z,95280.56
2022-07-29T17:27:05.947Z,95288.63
2022-07-29T17:29:32.770Z,95287.50
2022-07-29T17:31:59.469Z,95290.44
2022-07-29T17:34:26.542Z,95286.44
2022-07-29T17:36:53.359Z,95287.44
2022-07-29T17:39:20.120Z,95297.06
2022-07-29T17:41:46.810Z,95282.66
2022-07-29T17:44:13.981Z,95293.25
2022-07-29T17:46:40.796Z,95285.56
2022-07-29T17:49:07.560Z,95290.53
2022-07-29T17:51:34.452Z,95289.28
2022-07-29T17:54:01.179Z,95294.28
2022-07-29T17:56:27.854Z,95294.25
2022-07-29T17:58:54.572Z,95295.81
2022-07-29T18:01:21.310Z,95293.34
2022-07-29T18:03:48.056Z,95288.44
2022-07-29T18:06:14.732Z,95291.47
2022-07-29T18:08:41.499Z,95292.25
2022-07-29T18:11:08.165Z,95292.84
2022-07-29T18:13:41.721Z,95297.22
2022-07-29T18:16:09.435Z,95303.66
2022-07-29T18:18:36.382Z,95298.59
2022-07-29T18:21:04.396Z,95306.97
2022-07-29T18:23:31.345Z,95305.50
2022-07-29T18:25:58.055Z,95307.63
2022-07-29T18:28:25.736Z,95306.09
2022-07-29T18:30:52.913Z,95310.63
2022-07-29T18:33:21.614Z,95311.41
2022-07-29T18:35:50.901Z,95313.84
2022-07-29T18:38:17.827Z,95321.88
2022-07-29T18:40:44.603Z,95325.25
2022-07-29T18:43:11.761Z,95322.88
2022-07-29T18:45:38.465Z,95325.25
2022-07-29T18:48:06.784Z,95313.03
2022-07-29T18:50:33.553Z,95315.44
2022-07-29T18:53:00.299Z,95317.53
2022-07-29T18:55:27.008Z,95318.84
2022-07-29T18:57:56.689Z,95317.41
2022-07-29T19:00:24.757Z,95315.44
2022-07-29T19:02:51.980Z,95321.38
2022-07-29T19:05:19.022Z,95318.50
2022-07-29T19:07:45.718Z,95328.81
2022-07-29T19:10:12.536Z,95329.97
2022-07-29T19:12:39.200Z,95328.81
2022-07-29T19:15:06.250Z,95328.25
2022-07-29T19:17:32.969Z,95339.59
2022-07-29T19:19:59.996Z,95343.22
2022-07-29T19:22:26.686Z,95342.00
2022-07-29T19:24:53.358Z,95348.47
2022-07-29T19:27:21.411Z,95362.59
2022-07-29T19:29:48.146Z,95357.78
2022-07-29T19:32:24.799Z,95365.03
2022-07-29T19:34:52.401Z,95366.88
2022-07-29T19:37:19.151Z,95357.22
2022-07-29T19:39:45.822Z,95367.16
2022-07-29T19:42:12.641Z,95373.81
2022-07-29T19:44:39.381Z,95376.84
2022-07-29T19:47:06.092Z,95383.34
2022-07-29T19:49:32.849Z,95385.00
2022-07-29T19:51:59.887Z,95393.66
2022-07-29T19:54:26.651Z,95387.63
2022-07-29T19:56:53.359Z,95390.53
2022-07-29T19:59:23.860Z,95397.41
2022-07-29T20:01:51.386Z,95404.28
2022-07-29T20:04:18.075Z,95405.63
2022-07-29T20:06:44.783Z,95407.22
2022-07-29T20:09:20.353Z,95409.78
2022-07-29T20:11:47.230Z,95406.28
2022-07-29T20:14:14.002Z,95411.00
2022-07-29T20:16:40.726Z,95413.50
2022-07-29T20:19:07.473Z,95415.06
2022-07-29T20:21:34.177Z,95412.72
2022-07-29T20:24:02.919Z,95421.78
2022-07-29T20:26:34.035Z,95403.06
2022-07-29T20:29:00.808Z,95408.09
2022-07-29T20:31:27.904Z,95411.38
2022-07-29T20:33:54.694Z,95408.38
2022-07-29T20:36:21.453Z,95412.50
2022-07-29T20:38:48.148Z,95407.94
2022-07-29T20:41:15.431Z,95407.94
2022-07-29T20:43:43.126Z,95408.31
2022-07-29T20:46:10.004Z,95402.69
2022-07-29T20:48:36.993Z,95406.22
2022-07-29T20:51:03.695Z,95398.69
2022-07-29T20:53:30.502Z,95402.66
2022-07-29T20:55:57.295Z,95396.34
2022-07-29T20:58:24.056Z,95392.88
2022-07-29T21:00:51.295Z,95404.31
2022-07-29T21:03:18.061Z,95401.97
2022-07-29T21:05:44.908Z,95400.94
2022-07-29T21:08:11.701Z,95390.16
2022-07-29T21:10:38.361Z,95399.47
2022-07-29T21:13:05.112Z,95397.59
2022-07-29T21:15:32.342Z,95393.16
2022-07-29T21:17:59.279Z,95399.22
2022-07-29T21:20:26.638Z,95391.53
2022-07-29T21:22:53.404Z,95396.34
2022-07-29T21:25:20.106Z,95396.13
2022-07-29T21:27:47.999Z,95398.88
2022-07-29T21:30:14.755Z,95394.28
2022-07-29T21:32:41.622Z,95398.91
2022-07-29T21:35:14.501Z,95399.50
2022-07-29T21:37:54.234Z,95395.69
2022-07-29T21:40:21.435Z,95397.03
2022-07-29T21:42:48.162Z,95400.06
2022-07-29T21:45:16.561Z,95405.69
2022-07-29T21:47:43.290Z,95402.94
2022-07-29T21:50:10.098Z,95405.56
2022-07-29T21:52:37.315Z,95408.50
2022-07-29T21:55:04.516Z,95405.69
2022-07-29T21:57:31.367Z,95405.50
2022-07-29T22:00:02.511Z,95409.34
2022-07-29T22:02:29.993Z,95413.25
2022-07-29T22:04:56.695Z,95407.13
2022-07-29T22:07:24.449Z,95411.53
2022-07-29T22:10:11.178Z,95414.91
2022-07-29T22:12:37.899Z,95409.69
2022-07-29T22:15:05.410Z,95409.34
2022-07-29T22:17:32.203Z,95407.22
2022-07-29T22:19:58.922Z,95415.66
2022-07-29T22:22:25.741Z,95412.53
2022-07-29T22:24:52.729Z,95420.31
2022-07-29T22:27:19.521Z,95421.38
2022-07-29T22:29:46.224Z,95427.22
2022-07-29T22:32:13.080Z,95429.84
2022-07-29T22:34:39.820Z,95431.06
2022-07-29T22:37:07.052Z,95434.25
2022-07-29T22:39:33.759Z,95426.78
2022-07-29T22:42:00.542Z,95430.56
2022-07-29T22:44:27.319Z,95436.72
2022-07-29T22:46:54.023Z,95428.84
2022-07-29T22:49:20.868Z,95436.53
2022-07-29T22:51:47.661Z,95433.41
2022-07-29T22:54:14.556Z,95433.28
2022-07-29T22:56:41.499Z,95442.31
2022-07-29T22:59:08.227Z,95440.97
2022-07-29T23:01:37.550Z,95433.88
2022-07-29T23:04:04.619Z,95450.38
2022-07-29T23:06:31.465Z,95434.06
2022-07-29T23:08:58.202Z,95447.78
2022-07-29T23:11:25.114Z,95447.69
2022-07-29T23:13:53.992Z,95446.59
2022-07-29T23:16:26.477Z,95441.69
2022-07-29T23:18:54.497Z,95459.38
2022-07-29T23:21:21.605Z,95451.63
2022-07-29T23:23:49.272Z,95451.69
2022-07-29T23:26:16.471Z,95444.91
2022-07-29T23:28:46.320Z,95452.00
2022-07-29T23:31:13.118Z,95455.22
2022-07-29T23:33:41.084Z,95447.00
2022-07-29T23:36:08.010Z,95450.88
2022-07-29T23:38:34.766Z,95457.81
2022-07-29T23:41:02.743Z,95452.31
2022-07-29T23:43:29.456Z,95443.16
2022-07-29T23:45:56.366Z,95452.56
2022-07-29T23:48:25.010Z,95455.63
2022-07-29T23:50:51.898Z,95450.41
2022-07-29T23:53:18.812Z,95454.81
2022-07-29T23:55:45.509Z,95453.78
2022-07-29T23:58:12.293Z,95448.97
